Time;durP1;ratioP1;P1;durP2;ratioP2;P2;SDS_P1;SDS_P2;PMS_P1;PMS_P2;Temp;Humidity;BMP_temperature;BMP_pressure;BME280_temperature;BME280_humidity;BME280_pressure;Samples;Min_cycle;Max_cycle;Signal;HPM_P1;HPM_P2
2022/06/10 00:00:18;;;;;;;9.02;3.58;;;;;;;9.59;99.46;101948.25;1058798;27;20697;-83
2022/06/10 00:01:08;;;;;;;4.40;3.08;;;;;;;9.65;99.80;101951.19;1065769;27;20376;-83
2022/06/10 00:01:40;;;;;;;5.85;2.92;;;;;;;9.79;99.80;101953.00;1060147;28;20296;-83
2022/06/10 00:02:12;;;;;;;4.65;3.10;;;;;;;9.61;99.46;101945.41;1053029;28;20931;-82
2022/06/10 00:02:45;;;;;;;3.67;3.15;;;;;;;9.78;100.00;101956.69;1054039;28;20379;-83
2022/06/10 00:03:18;;;;;;;7.03;3.28;;;;;;;9.39;99.39;101947.13;1049906;28;20727;-83
2022/06/10 00:03:50;;;;;;;6.05;2.78;;;;;;;9.58;99.67;101949.22;1051755;28;20301;-83
2022/06/10 00:04:22;;;;;;;4.03;2.95;;;;;;;9.57;99.93;101955.56;1050332;28;20722;-82
2022/06/10 00:04:53;;;;;;;8.75;3.47;;;;;;;9.41;99.09;101949.59;1049145;28;20346;-82
2022/06/10 00:05:28;;;;;;;6.85;3.53;;;;;;;9.60;99.79;101952.56;1050835;28;20301;-82
2022/06/10 00:06:03;;;;;;;6.10;3.97;;;;;;;9.68;99.30;101959.63;1048719;28;20707;-83
2022/06/10 00:06:34;;;;;;;5.30;3.22;;;;;;;9.46;99.73;101950.69;1047533;28;20314;-82
2022/06/10 00:07:06;;;;;;;9.20;3.22;;;;;;;9.32;99.64;101945.38;1049299;28;20298;-82
2022/06/10 00:07:38;;;;;;;7.13;3.28;;;;;;;9.52;99.61;101960.59;1051514;28;20286;-82
2022/06/10 00:08:12;;;;;;;4.32;3.25;;;;;;;9.49;100.00;101950.31;1051175;28;20297;-82
2022/06/10 00:08:46;;;;;;;10.93;3.67;;;;;;;9.30;100.00;101948.19;1044321;28;20295;-82
2022/06/10 00:09:17;;;;;;;9.30;3.28;;;;;;;9.39;100.00;101956.94;1047809;28;20779;-82
2022/06/10 00:09:49;;;;;;;6.57;3.38;;;;;;;9.68;100.00;101950.81;1043423;28;20302;-82
2022/06/10 00:10:26;;;;;;;7.88;3.65;;;;;;;9.60;100.00;101951.72;1048739;28;20306;-82
2022/06/10 00:10:59;;;;;;;9.93;3.53;;;;;;;9.44;100.00;101960.69;1048998;28;21007;-82
2022/06/10 00:11:32;;;;;;;7.88;3.60;;;;;;;9.27;100.00;101964.50;1047513;28;20340;-83
2022/06/10 00:12:04;;;;;;;8.05;3.25;;;;;;;9.46;100.00;101955.19;1040684;28;20300;-83
2022/06/10 00:12:36;;;;;;;7.45;2.78;;;;;;;9.53;100.00;101954.28;1046349;28;20295;-82
2022/06/10 00:13:08;;;;;;;10.75;3.38;;;;;;;9.35;100.00;101953.81;1048481;28;20301;-83
2022/06/10 00:13:42;;;;;;;8.57;3.65;;;;;;;9.29;100.00;101951.84;1049378;28;20298;-82
2022/06/10 00:14:14;;;;;;;6.18;3.03;;;;;;;9.40;100.00;101951.44;1048379;28;20294;-82
2022/06/10 00:14:45;;;;;;;11.10;3.45;;;;;;;9.26;100.00;101952.22;1045791;28;21636;-83
2022/06/10 00:15:18;;;;;;;5.97;3.28;;;;;;;9.36;100.00;101952.81;1045409;28;20287;-82
2022/06/10 00:15:50;;;;;;;6.43;3.30;;;;;;;9.30;100.00;101949.00;1044753;28;20835;-83
2022/06/10 00:16:22;;;;;;;7.10;3.17;;;;;;;9.22;100.00;101949.09;1044097;28;20319;-83
2022/06/10 00:16:54;;;;;;;7.20;3.17;;;;;;;9.30;100.00;101948.19;1044343;28;20288;-83
2022/06/10 00:17:25;;;;;;;4.07;3.03;;;;;;;9.20;100.00;101955.59;1050970;28;20834;-83
2022/06/10 00:17:58;;;;;;;5.32;3.30;;;;;;;9.33;100.00;101952.34;1055719;28;20297;-83
2022/06/10 00:18:31;;;;;;;6.70;3.58;;;;;;;9.32;100.00;101954.16;1057664;27;20805;-83
2022/06/10 00:19:03;;;;;;;8.23;3.47;;;;;;;9.49;100.00;101947.66;1054541;28;20632;-83
2022/06/10 00:19:34;;;;;;;7.35;3.65;;;;;;;9.28;100.00;101950.19;1056079;28;20475;-83
2022/06/10 00:20:08;;;;;;;8.85;3.90;;;;;;;9.11;100.00;101954.03;1053197;28;20294;-82
2022/06/10 00:20:40;;;;;;;8.27;3.63;;;;;;;9.02;100.00;101955.06;1057926;27;20304;-83
2022/06/10 00:21:13;;;;;;;5.43;3.50;;;;;;;8.96;100.00;101948.66;1060729;27;20300;-83
2022/06/10 00:21:45;;;;;;;7.00;3.70;;;;;;;8.94;100.00;101958.63;1057771;27;20806;-83
2022/06/10 00:22:16;;;;;;;12.27;3.75;;;;;;;9.02;100.00;101949.75;1061256;27;20288;-83
2022/06/10 00:22:48;;;;;;;4.75;3.80;;;;;;;9.01;100.00;101954.25;1057653;27;20308;-82
2022/06/10 00:23:20;;;;;;;5.95;3.75;;;;;;;8.95;100.00;101953.13;1060973;27;20300;-82
2022/06/10 00:23:52;;;;;;;4.80;3.45;;;;;;;9.14;100.00;101956.31;1052406;28;20298;-82
2022/06/10 00:24:24;;;;;;;10.93;4.03;;;;;;;9.01;100.00;101958.72;1050413;28;20299;-83
2022/06/10 00:24:55;;;;;;;11.00;4.20;;;;;;;8.97;100.00;101963.59;1056599;28;20293;-82
2022/06/10 00:25:28;;;;;;;7.93;4.18;;;;;;;8.93;100.00;101956.97;1051236;28;20300;-82
2022/06/10 00:25:59;;;;;;;7.90;4.20;;;;;;;8.97;100.00;101964.41;1054496;27;20298;-83
2022/06/10 00:26:31;;;;;;;8.52;4.10;;;;;;;9.20;100.00;101959.06;1052226;28;20305;-82
2022/06/10 00:27:03;;;;;;;6.18;3.88;;;;;;;9.34;100.00;101954.00;1054023;27;20794;-83
2022/06/10 00:27:35;;;;;;;11.45;4.45;;;;;;;9.23;100.00;101949.91;1050907;28;20303;-83
2022/06/10 00:28:07;;;;;;;8.18;4.47;;;;;;;9.13;100.00;101958.16;1045283;28;20302;-83
2022/06/10 00:28:42;;;;;;;6.22;3.85;;;;;;;9.14;100.00;101959.81;1050801;28;20828;-83
2022/06/10 00:29:14;;;;;;;7.00;4.15;;;;;;;9.11;100.00;101959.34;1053724;28;20384;-83
2022/06/10 00:29:47;;;;;;;8.40;3.60;;;;;;;9.05;100.00;101952.09;1056552;28;20347;-83
2022/06/10 00:30:22;;;;;;;16.63;4.18;;;;;;;9.00;100.00;101955.25;1052867;28;20316;-83
2022/06/10 00:30:54;;;;;;;9.85;4.15;;;;;;;9.06;100.00;101951.91;1049134;28;20350;-83
2022/06/10 00:31:26;;;;;;;6.50;3.33;;;;;;;9.03;100.00;101952.22;1052710;27;20301;-82
2022/06/10 00:31:59;;;;;;;9.48;5.32;;;;;;;9.00;100.00;101952.59;1052527;28;20310;-83
2022/06/10 00:32:30;;;;;;;7.65;4.53;;;;;;;9.06;100.00;101953.72;1048619;28;20295;-82
2022/06/10 00:33:02;;;;;;;6.28;3.65;;;;;;;8.97;100.00;101959.09;1049417;28;20299;-83
2022/06/10 00:33:35;;;;;;;8.65;3.45;;;;;;;9.04;100.00;101947.75;1052554;28;20791;-82
2022/06/10 00:34:07;;;;;;;5.75;3.28;;;;;;;9.18;100.00;101955.78;1049017;28;20307;-83
2022/06/10 00:34:39;;;;;;;6.38;3.58;;;;;;;9.09;100.00;101950.72;1050712;28;20300;-82
2022/06/10 00:35:11;;;;;;;8.60;4.38;;;;;;;9.04;100.00;101950.41;1055528;27;20289;-83
2022/06/10 00:35:43;;;;;;;15.63;3.90;;;;;;;9.02;100.00;101941.78;1060756;27;20311;-83
2022/06/10 00:36:15;;;;;;;12.27;4.03;;;;;;;8.98;100.00;101950.13;1063742;27;20292;-82
2022/06/10 00:36:47;;;;;;;6.18;3.80;;;;;;;9.22;100.00;101945.59;1065606;27;20318;-82
2022/06/10 00:37:19;;;;;;;8.35;3.67;;;;;;;9.08;100.00;101941.91;1059450;27;20296;-82
2022/06/10 00:37:50;;;;;;;7.38;4.78;;;;;;;9.09;100.00;101945.41;1057425;27;20304;-82
2022/06/10 00:38:22;;;;;;;7.05;4.35;;;;;;;9.19;100.00;101946.78;1061179;27;20292;-82
2022/06/10 00:38:54;;;;;;;8.05;4.00;;;;;;;9.17;100.00;101947.97;1054161;28;20308;-83
2022/06/10 00:39:26;;;;;;;13.63;4.53;;;;;;;9.13;100.00;101944.84;1055456;28;20293;-83
2022/06/10 00:39:57;;;;;;;8.88;4.10;;;;;;;9.25;100.00;101939.91;1048657;28;20377;-83
2022/06/10 00:40:34;;;;;;;10.05;4.18;;;;;;;9.15;100.00;101939.38;1046618;28;20291;-83
2022/06/10 00:41:06;;;;;;;9.85;4.13;;;;;;;9.37;100.00;101948.31;1050959;28;20283;-83
2022/06/10 00:41:44;;;;;;;5.30;3.70;;;;;;;9.50;100.00;101938.69;1056650;27;20304;-82
2022/06/10 00:42:16;;;;;;;6.72;4.47;;;;;;;9.52;100.00;101944.63;1056599;28;20658;-83
2022/06/10 00:42:48;;;;;;;9.13;4.13;;;;;;;9.38;100.00;101945.47;1058182;27;20301;-82
2022/06/10 00:43:24;;;;;;;9.70;3.92;;;;;;;9.54;100.00;101945.28;1056198;27;20294;-83
2022/06/10 00:43:56;;;;;;;8.05;4.20;;;;;;;9.34;100.00;101943.34;1051430;28;20313;-82
2022/06/10 00:44:43;;;;;;;11.73;4.50;;;;;;;9.32;100.00;101940.88;1052277;28;20827;-83
2022/06/10 00:45:52;;;;;;;5.68;4.38;;;;;;;9.48;100.00;101935.38;1051929;28;20309;-82
2022/06/10 00:46:29;;;;;;;6.75;4.45;;;;;;;9.42;100.00;101936.13;1059670;27;20326;-83
2022/06/10 00:47:12;;;;;;;6.45;4.00;;;;;;;9.41;100.00;101934.47;1057797;27;20316;-83
2022/06/10 00:47:43;;;;;;;5.70;4.03;;;;;;;9.59;100.00;101937.59;1061266;27;20296;-83
2022/06/10 00:48:19;;;;;;;9.52;3.58;;;;;;;9.65;100.00;101943.19;1060931;27;20307;-82
2022/06/10 00:48:56;;;;;;;7.60;4.30;;;;;;;9.52;100.00;101939.31;1056549;28;20293;-83
2022/06/10 00:49:28;;;;;;;6.85;3.70;;;;;;;9.60;100.00;101944.56;1052464;28;20304;-83
2022/06/10 00:50:16;;;;;;;8.27;4.50;;;;;;;9.37;100.00;101943.00;1048260;28;20299;-83
2022/06/10 00:50:48;;;;;;;7.65;4.05;;;;;;;9.27;100.00;101937.91;1059006;27;20355;-83
2022/06/10 00:51:40;;;;;;;6.47;4.00;;;;;;;9.43;100.00;101943.09;1051008;28;20301;-83
2022/06/10 00:52:22;;;;;;;10.45;4.25;;;;;;;9.39;100.00;101925.84;1056947;28;20301;-83
2022/06/10 00:52:57;;;;;;;9.40;3.88;;;;;;;9.26;100.00;101930.94;1051345;28;20411;-83
2022/06/10 00:53:33;;;;;;;9.82;4.20;;;;;;;9.39;100.00;101940.97;1055257;28;20771;-83
2022/06/10 00:54:23;;;;;;;10.98;4.25;;;;;;;9.30;100.00;101935.72;1050354;28;20297;-83
2022/06/10 00:54:55;;;;;;;4.35;3.55;;;;;;;9.17;100.00;101937.34;1056302;28;20289;-83
2022/06/10 00:55:30;;;;;;;5.97;3.78;;;;;;;9.41;100.00;101939.78;1059003;27;20725;-83
2022/06/10 00:56:08;;;;;;;12.15;4.07;;;;;;;9.36;100.00;101939.50;1053294;28;20285;-83
2022/06/10 00:56:51;;;;;;;6.55;4.20;;;;;;;9.58;100.00;101930.59;1047023;28;20295;-83
2022/06/10 00:57:26;;;;;;;4.45;3.58;;;;;;;9.37;100.00;101933.19;1052390;28;20600;-83
2022/06/10 00:58:14;;;;;;;8.77;4.28;;;;;;;9.59;100.00;101936.78;1055735;28;20864;-83
2022/06/10 00:59:01;;;;;;;5.88;5.13;;;;;;;9.77;100.00;101939.88;1047935;28;20648;-83
2022/06/10 00:59:38;;;;;;;10.35;3.88;;;;;;;9.63;100.00;101937.25;1051011;28;20847;-83
2022/06/10 01:00:16;;;;;;;6.45;4.13;;;;;;;9.27;100.00;101932.59;1050886;28;20689;-83
2022/06/10 01:00:47;;;;;;;5.68;3.72;;;;;;;9.45;100.00;101938.41;1052103;28;20302;-83
2022/06/10 01:01:20;;;;;;;9.07;3.72;;;;;;;9.12;100.00;101935.22;1054355;28;20286;-83
2022/06/10 01:01:55;;;;;;;5.80;3.22;;;;;;;9.18;100.00;101944.31;1051896;28;20641;-83
2022/06/10 01:02:31;;;;;;;4.57;3.22;;;;;;;9.04;100.00;101937.13;1049521;28;20302;-83
2022/06/10 01:03:04;;;;;;;9.98;3.65;;;;;;;8.91;100.00;101943.88;1048718;28;20300;-83
2022/06/10 01:03:36;;;;;;;5.50;3.40;;;;;;;9.24;100.00;101932.94;1047879;28;20291;-83
2022/06/10 01:04:09;;;;;;;7.95;3.75;;;;;;;9.05;100.00;101939.63;1045626;28;20299;-83
2022/06/10 01:04:41;;;;;;;11.23;3.63;;;;;;;9.27;100.00;101935.25;1046326;28;20314;-83
2022/06/10 01:05:19;;;;;;;8.05;3.65;;;;;;;8.99;100.00;101935.00;1048979;28;20302;-83
2022/06/10 01:05:50;;;;;;;6.93;3.67;;;;;;;9.23;100.00;101942.75;1051520;28;20874;-83
2022/06/10 01:06:23;;;;;;;4.35;3.95;;;;;;;9.08;100.00;101938.44;1058419;27;20790;-83
2022/06/10 01:06:55;;;;;;;11.82;4.28;;;;;;;8.88;100.00;101933.59;1054020;28;20341;-83
2022/06/10 01:07:31;;;;;;;6.75;3.35;;;;;;;8.89;100.00;101937.91;1053066;28;20298;-83
2022/06/10 01:08:09;;;;;;;6.07;3.65;;;;;;;8.82;100.00;101938.81;1048179;28;20303;-83
2022/06/10 01:08:42;;;;;;;9.23;3.83;;;;;;;8.80;100.00;101941.66;1046159;28;20307;-83
2022/06/10 01:09:14;;;;;;;8.55;3.67;;;;;;;8.97;100.00;101948.47;1046192;28;20295;-83
2022/06/10 01:09:47;;;;;;;8.20;3.30;;;;;;;8.81;100.00;101942.47;1045731;28;20304;-83
2022/06/10 01:10:19;;;;;;;6.72;4.22;;;;;;;8.68;100.00;101943.03;1045189;28;20310;-83
2022/06/10 01:11:12;;;;;;;3.60;3.10;;;;;;;8.84;100.00;101937.63;1040196;28;20350;-83
2022/06/10 01:11:58;;;;;;;7.72;3.63;;;;;;;8.96;100.00;101940.66;1052073;28;20294;-82
2022/06/10 01:13:00;;;;;;;8.82;3.58;;;;;;;8.95;100.00;101944.34;1052711;27;20344;-83
2022/06/10 01:13:50;;;;;;;4.55;3.08;;;;;;;8.66;100.00;101942.38;1062930;27;20300;-82
2022/06/10 01:15:00;;;;;;;8.45;3.97;;;;;;;8.78;100.00;101943.66;1065368;27;20129;-82
2022/06/10 01:15:46;;;;;;;8.13;3.42;;;;;;;8.75;100.00;101949.28;1058741;27;20295;-82
2022/06/10 01:16:31;;;;;;;8.88;3.88;;;;;;;8.71;100.00;101948.00;1056438;27;20335;-83
2022/06/10 01:17:12;;;;;;;7.70;3.58;;;;;;;8.66;100.00;101937.09;1055020;28;20293;-83
2022/06/10 01:18:12;;;;;;;12.23;5.32;;;;;;;8.55;100.00;101938.31;1056664;28;20771;-84
2022/06/10 01:19:19;;;;;;;9.73;4.53;;;;;;;8.78;100.00;101941.00;1053537;28;20691;-83
2022/06/10 01:20:08;;;;;;;5.78;3.83;;;;;;;8.63;100.00;101938.25;1043655;28;20850;-83
2022/06/10 01:20:50;;;;;;;5.45;3.83;;;;;;;8.64;100.00;101936.44;1051996;28;20297;-84
2022/06/10 01:21:55;;;;;;;8.65;4.15;;;;;;;8.85;100.00;101933.97;1049685;28;20338;-83
2022/06/10 01:23:15;;;;;;;4.78;3.50;;;;;;;8.95;100.00;101936.38;1052788;28;20348;-83
2022/06/10 01:24:02;;;;;;;7.40;4.05;;;;;;;8.86;100.00;101934.78;1043417;28;20300;-82
2022/06/10 01:24:59;;;;;;;7.05;3.78;;;;;;;8.94;100.00;101934.72;1060488;27;20663;-83
2022/06/10 01:25:48;;;;;;;7.28;3.75;;;;;;;8.99;100.00;101930.50;1056153;28;20297;-83
2022/06/10 01:26:22;;;;;;;7.20;4.10;;;;;;;8.96;100.00;101936.19;1048535;28;20299;-83
2022/06/10 01:28:48;;;;;;;9.52;3.90;;;;;;;8.77;100.00;101939.34;1055953;27;20294;-82
2022/06/10 01:29:49;;;;;;;6.32;3.75;;;;;;;8.70;100.00;101934.88;1061197;27;20302;-83
2022/06/10 01:30:45;;;;;;;12.80;4.13;;;;;;;8.84;100.00;101932.31;1062598;27;20296;-83
2022/06/10 01:31:23;;;;;;;7.28;4.05;;;;;;;8.84;100.00;101926.16;1060806;27;20285;-83
2022/06/10 01:32:01;;;;;;;4.53;3.97;;;;;;;8.78;100.00;101933.03;1054198;28;20290;-83
2022/06/10 01:33:07;;;;;;;8.95;4.32;;;;;;;8.74;100.00;101937.00;1056507;28;20297;-83
2022/06/10 01:34:03;;;;;;;7.32;4.38;;;;;;;8.82;100.00;101936.97;1058674;27;20377;-83
2022/06/10 01:34:41;;;;;;;4.57;3.60;;;;;;;8.70;100.00;101933.06;1049833;28;20306;-83
2022/06/10 01:35:21;;;;;;;9.30;4.25;;;;;;;8.84;100.00;101932.31;1046740;28;20299;-83
2022/06/10 01:36:04;;;;;;;5.53;3.92;;;;;;;8.72;100.00;101938.19;1048038;28;20794;-84
2022/06/10 01:36:59;;;;;;;6.93;4.22;;;;;;;8.58;100.00;101926.53;1052232;28;20665;-83
2022/06/10 01:37:49;;;;;;;12.20;4.22;;;;;;;8.56;100.00;101933.84;1054265;27;20305;-84
2022/06/10 01:38:37;;;;;;;5.22;3.47;;;;;;;8.57;100.00;101935.50;1056023;27;20305;-83
2022/06/10 01:39:09;;;;;;;5.75;3.90;;;;;;;8.56;100.00;101933.84;1048042;28;20683;-83
2022/06/10 01:39:40;;;;;;;4.38;3.92;;;;;;;8.53;100.00;101928.88;1047978;28;20310;-83
2022/06/10 01:40:23;;;;;;;6.03;3.80;;;;;;;8.54;100.00;101935.84;1050333;28;20710;-83
2022/06/10 01:40:55;;;;;;;6.80;3.53;;;;;;;8.53;100.00;101931.53;1049334;28;20310;-83
2022/06/10 01:41:44;;;;;;;4.55;4.13;;;;;;;8.41;100.00;101932.94;1051706;28;20301;-84
2022/06/10 01:42:30;;;;;;;9.43;4.22;;;;;;;8.49;100.00;101931.06;1056498;28;20832;-83
2022/06/10 01:43:19;;;;;;;7.72;4.47;;;;;;;8.45;100.00;101926.25;1060780;27;20665;-83
2022/06/10 01:43:59;;;;;;;5.85;4.15;;;;;;;8.42;100.00;101927.44;1052569;28;20306;-83
2022/06/10 01:44:52;;;;;;;7.75;4.30;;;;;;;8.42;100.00;101932.75;1052115;28;20695;-84
2022/06/10 01:45:41;;;;;;;6.57;4.03;;;;;;;8.72;100.00;101931.06;1052142;28;20294;-84
2022/06/10 01:46:24;;;;;;;8.35;5.07;;;;;;;8.75;100.00;101928.03;1051219;28;20295;-83
2022/06/10 01:47:18;;;;;;;8.75;3.83;;;;;;;8.66;100.00;101929.09;1047788;28;20441;-84
2022/06/10 01:48:01;;;;;;;6.28;4.00;;;;;;;8.96;100.00;101925.56;1049054;28;20318;-83
2022/06/10 01:49:03;;;;;;;7.60;4.57;;;;;;;9.01;100.00;101917.03;1048617;28;20317;-82
2022/06/10 01:49:41;;;;;;;7.78;4.28;;;;;;;8.97;100.00;101927.22;1039734;28;20314;-84
2022/06/10 01:50:46;;;;;;;6.82;4.43;;;;;;;8.96;100.00;101922.06;1038282;28;20506;-83
2022/06/10 01:51:49;;;;;;;9.85;4.93;;;;;;;9.09;100.00;101916.16;1058385;27;20790;-83
2022/06/10 01:52:38;;;;;;;7.10;4.05;;;;;;;8.95;100.00;101929.22;1059015;27;20312;-83
2022/06/10 01:53:15;;;;;;;9.18;4.40;;;;;;;8.72;100.00;101928.41;1058558;27;20301;-83
2022/06/10 01:53:57;;;;;;;7.20;4.40;;;;;;;8.86;100.00;101924.97;1053835;28;20663;-83
2022/06/10 01:54:40;;;;;;;6.47;5.78;;;;;;;8.72;100.00;101925.75;1058879;27;20289;-83
2022/06/10 01:55:39;;;;;;;7.05;4.43;;;;;;;8.57;100.00;101930.19;1050456;28;20313;-83
2022/06/10 01:56:19;;;;;;;13.82;6.70;;;;;;;8.76;100.00;101929.69;1049409;28;20299;-83
2022/06/10 01:56:55;;;;;;;8.13;4.18;;;;;;;8.63;100.00;101924.97;1053418;28;20719;-83
2022/06/10 01:57:52;;;;;;;5.28;4.38;;;;;;;8.49;100.00;101922.25;1055269;28;20547;-82
2022/06/10 01:58:32;;;;;;;7.63;3.95;;;;;;;8.45;100.00;101919.13;1053185;28;20302;-83
2022/06/10 01:59:22;;;;;;;12.85;4.97;;;;;;;8.75;100.00;101930.69;1056500;27;20293;-83
2022/06/10 02:00:05;;;;;;;7.78;5.10;;;;;;;8.72;100.00;101924.91;1054973;28;20102;-82
2022/06/10 02:00:40;;;;;;;7.32;4.40;;;;;;;8.64;100.00;101931.13;1057843;27;20308;-83
2022/06/10 02:01:16;;;;;;;8.77;4.90;;;;;;;8.67;100.00;101925.44;1053211;28;20289;-83
2022/06/10 02:01:53;;;;;;;5.35;4.70;;;;;;;8.76;100.00;101934.19;1053533;28;20402;-83
2022/06/10 02:02:32;;;;;;;4.45;4.00;;;;;;;8.85;100.00;101933.13;1048770;28;20789;-83
2022/06/10 02:03:06;;;;;;;9.65;4.63;;;;;;;8.76;100.00;101924.38;1049981;28;20298;-83
2022/06/10 02:03:46;;;;;;;9.88;4.72;;;;;;;8.53;100.00;101934.19;1053402;28;20652;-83
2022/06/10 02:04:25;;;;;;;7.30;4.72;;;;;;;8.47;100.00;101934.88;1058200;27;20296;-83
2022/06/10 02:05:09;;;;;;;7.03;4.80;;;;;;;8.73;100.00;101932.72;1055388;28;20293;-83
2022/06/10 02:05:46;;;;;;;6.20;4.30;;;;;;;8.86;100.00;101937.44;1050623;28;20325;-83
2022/06/10 02:06:20;;;;;;;5.32;4.53;;;;;;;8.73;100.00;101932.72;1050358;28;20294;-83
2022/06/10 02:07:00;;;;;;;6.95;4.60;;;;;;;8.55;100.00;101932.19;1047252;28;20298;-83
2022/06/10 02:07:40;;;;;;;6.95;5.20;;;;;;;8.47;100.00;101929.56;1052323;28;20360;-83
2022/06/10 02:08:18;;;;;;;10.05;5.30;;;;;;;8.60;100.00;101932.47;1048523;28;20807;-83
2022/06/10 02:08:54;;;;;;;8.07;4.50;;;;;;;8.66;100.00;101934.44;1050618;28;20044;-83
2022/06/10 02:09:30;;;;;;;5.00;4.50;;;;;;;8.75;100.00;101933.34;1048687;28;20384;-83
2022/06/10 02:10:13;;;;;;;8.52;4.70;;;;;;;8.78;100.00;101927.72;1050298;28;20897;-82
2022/06/10 02:11:01;;;;;;;13.25;6.28;;;;;;;8.78;100.00;101932.19;1058736;27;20309;-83
2022/06/10 02:11:34;;;;;;;6.60;4.53;;;;;;;8.56;100.00;101934.66;1058819;27;20293;-83
2022/06/10 02:12:36;;;;;;;5.72;4.95;;;;;;;8.77;100.00;101931.38;1060923;27;20657;-83
2022/06/10 02:13:08;;;;;;;;;;;;;;;8.93;100.00;101931.22;1060278;27;20821;-83
2022/06/10 02:13:46;;;;;;;8.70;3.78;;;;;;;8.88;100.00;101927.47;1054786;27;20385;-83
2022/06/10 02:14:25;;;;;;;7.68;5.63;;;;;;;8.63;100.00;101929.47;1058360;27;20297;-83
2022/06/10 02:15:08;;;;;;;7.80;4.40;;;;;;;8.54;100.00;101933.19;1052549;28;20842;-83
2022/06/10 02:15:52;;;;;;;10.55;5.93;;;;;;;8.72;100.00;101931.06;1053449;28;20826;-83
2022/06/10 02:16:30;;;;;;;5.25;4.57;;;;;;;8.76;100.00;101935.00;1051174;28;20298;-83
2022/06/10 02:17:03;;;;;;;8.18;5.35;;;;;;;8.77;100.00;101931.38;1055461;28;20305;-83
2022/06/10 02:17:38;;;;;;;7.05;4.88;;;;;;;8.71;100.00;101932.06;1047765;28;20313;-83
2022/06/10 02:18:14;;;;;;;11.43;5.68;;;;;;;8.64;100.00;101934.59;1048060;28;20675;-83
2022/06/10 02:18:50;;;;;;;5.03;4.47;;;;;;;8.72;100.00;101935.53;1048160;28;20812;-83
2022/06/10 02:19:26;;;;;;;5.90;4.32;;;;;;;8.72;100.00;101933.72;1052539;28;20286;-83
2022/06/10 02:19:59;;;;;;;7.65;5.28;;;;;;;8.68;100.00;101940.38;1052125;28;20301;-83
2022/06/10 02:20:32;;;;;;;6.55;5.15;;;;;;;8.62;100.00;101927.81;1051390;28;20306;-83
2022/06/10 02:21:08;;;;;;;7.55;4.55;;;;;;;8.48;100.00;101941.84;1052033;28;20310;-83
2022/06/10 02:21:51;;;;;;;6.55;5.13;;;;;;;8.53;100.00;101935.03;1051937;28;20298;-83
2022/06/10 02:22:34;;;;;;;9.73;4.53;;;;;;;8.54;100.00;101930.53;1049881;28;20649;-83
2022/06/10 02:23:07;;;;;;;6.35;4.82;;;;;;;8.51;100.00;101930.88;1057867;27;20292;-83
2022/06/10 02:23:43;;;;;;;8.73;4.53;;;;;;;8.58;100.00;101937.16;1054901;28;20717;-83
2022/06/10 02:24:23;;;;;;;6.40;5.30;;;;;;;8.46;100.00;101933.22;1055358;28;20297;-83
2022/06/10 02:24:58;;;;;;;5.32;4.50;;;;;;;8.36;100.00;101939.59;1053276;28;20806;-83
2022/06/10 02:25:35;;;;;;;5.18;4.30;;;;;;;8.56;100.00;101934.66;1057436;27;20304;-83
2022/06/10 02:26:07;;;;;;;7.63;4.90;;;;;;;8.57;100.00;101936.31;1056150;28;20289;-83
2022/06/10 02:26:40;;;;;;;11.02;4.50;;;;;;;8.63;100.00;101937.44;1052367;28;20297;-83
2022/06/10 02:27:17;;;;;;;6.63;4.68;;;;;;;8.66;100.00;101931.78;1050994;28;20298;-83
2022/06/10 02:27:54;;;;;;;7.60;4.45;;;;;;;8.79;100.00;101932.03;1053933;28;20357;-83
2022/06/10 02:28:31;;;;;;;4.95;4.45;;;;;;;8.66;100.00;101937.91;1050082;28;20306;-82
2022/06/10 02:29:08;;;;;;;6.05;4.28;;;;;;;8.50;100.00;101931.91;1052219;28;20305;-83
2022/06/10 02:30:01;;;;;;;8.15;4.68;;;;;;;8.60;100.00;101935.97;1056520;27;20297;-84
2022/06/10 02:30:47;;;;;;;4.85;4.43;;;;;;;8.72;100.00;101933.72;1056199;28;20302;-83
2022/06/10 02:31:43;;;;;;;5.20;4.15;;;;;;;8.58;100.00;101937.16;1055749;28;20285;-83
2022/06/10 02:32:14;;;;;;;9.93;5.10;;;;;;;8.50;100.00;101938.03;1060102;27;20292;-83
2022/06/10 02:32:47;;;;;;;7.68;4.55;;;;;;;8.50;100.00;101939.84;1060507;27;20357;-83
2022/06/10 02:33:18;;;;;;;7.10;5.72;;;;;;;8.68;100.00;101940.38;1056191;28;21672;-83
2022/06/10 02:33:50;;;;;;;7.05;4.93;;;;;;;8.87;100.00;101933.78;1052069;28;20372;-83
2022/06/10 02:34:22;;;;;;;9.27;4.55;;;;;;;8.69;100.00;101942.03;1054917;28;20342;-83
2022/06/10 02:34:55;;;;;;;8.13;4.63;;;;;;;8.58;100.00;101937.16;1047768;28;20386;-83
2022/06/10 02:35:35;;;;;;;4.63;4.10;;;;;;;8.49;100.00;101935.53;1045775;28;20326;-83
2022/06/10 02:36:17;;;;;;;10.02;4.53;;;;;;;8.35;100.00;101943.25;1049893;28;20295;-83
2022/06/10 02:36:53;;;;;;;8.23;4.70;;;;;;;8.47;100.00;101934.88;1054516;28;20297;-83
2022/06/10 02:37:49;;;;;;;8.13;4.30;;;;;;;8.56;100.00;101947.13;1054784;28;20765;-82
2022/06/10 02:38:44;;;;;;;9.85;4.82;;;;;;;8.48;100.00;101932.03;1044428;27;20381;-83
2022/06/10 02:39:26;;;;;;;9.32;4.90;;;;;;;8.52;100.00;101943.16;1056202;27;20290;-83
2022/06/10 02:40:19;;;;;;;4.28;3.88;;;;;;;8.63;100.00;101940.09;1047780;28;20302;-82
2022/06/10 02:41:12;;;;;;;7.82;4.15;;;;;;;8.89;100.00;101939.75;1044423;28;20311;-83
2022/06/10 02:42:00;;;;;;;7.57;4.68;;;;;;;8.52;100.00;101943.16;1054189;27;20378;-83
2022/06/10 02:42:43;;;;;;;7.05;4.07;;;;;;;8.59;100.00;101946.75;1057653;27;20308;-83
2022/06/10 02:43:25;;;;;;;7.43;4.15;;;;;;;8.38;100.00;101938.59;1060540;27;20296;-83
2022/06/10 02:44:23;;;;;;;6.28;4.38;;;;;;;8.31;100.00;101936.59;1053957;28;20289;-83
2022/06/10 02:45:09;;;;;;;5.38;4.55;;;;;;;8.55;100.00;101940.16;1056469;28;20289;-83
2022/06/10 02:46:04;;;;;;;11.30;4.65;;;;;;;8.49;100.00;101933.72;1053592;28;20305;-83
2022/06/10 02:46:45;;;;;;;7.65;4.47;;;;;;;8.60;100.00;101945.75;1054233;27;20337;-83
2022/06/10 02:47:29;;;;;;;7.63;4.68;;;;;;;8.82;100.00;101947.59;1055756;28;20293;-83
2022/06/10 02:48:25;;;;;;;6.82;4.75;;;;;;;8.83;100.00;101945.78;1050211;28;20040;-83
2022/06/10 02:49:05;;;;;;;9.23;4.38;;;;;;;8.88;100.00;101949.53;1054597;27;20294;-83
2022/06/10 02:49:36;;;;;;;9.02;4.43;;;;;;;8.95;100.00;101953.13;1056645;27;20297;-83
2022/06/10 02:50:09;;;;;;;6.25;5.03;;;;;;;8.99;100.00;101941.13;1051984;28;20305;-83
2022/06/10 02:50:44;;;;;;;8.75;4.95;;;;;;;8.95;100.00;101947.81;1048697;28;20298;-83
2022/06/10 02:51:16;;;;;;;6.32;4.55;;;;;;;8.95;100.00;101939.03;1053689;28;20289;-83
2022/06/10 02:51:48;;;;;;;9.80;5.63;;;;;;;8.95;100.00;101944.34;1053287;28;20290;-83
2022/06/10 02:52:23;;;;;;;6.50;5.53;;;;;;;8.99;100.00;101954.44;1045174;28;20374;-83
2022/06/10 02:52:54;;;;;;;7.63;5.13;;;;;;;8.98;100.00;101949.28;1051968;28;20290;-83
2022/06/10 02:53:27;;;;;;;7.82;5.32;;;;;;;9.10;100.00;101949.72;1052864;28;20779;-83
2022/06/10 02:54:01;;;;;;;7.10;4.93;;;;;;;8.83;100.00;101951.91;1051841;28;20637;-83
2022/06/10 02:54:37;;;;;;;5.95;4.85;;;;;;;8.89;100.00;101953.84;1058274;27;20289;-83
2022/06/10 02:55:18;;;;;;;9.85;5.05;;;;;;;8.84;100.00;101948.25;1056225;28;20739;-83
2022/06/10 02:55:50;;;;;;;7.22;5.15;;;;;;;8.85;100.00;101944.59;1063573;27;20353;-83
2022/06/10 02:56:24;;;;;;;6.80;4.82;;;;;;;8.67;100.00;101946.69;1061926;27;20305;-83
2022/06/10 02:56:57;;;;;;;8.45;5.60;;;;;;;8.53;100.00;101942.16;1059916;27;20319;-83
2022/06/10 03:01:16;;;;;;;6.35;5.30;;;;;;;8.51;100.00;101944.16;1051811;28;20040;-83
2022/06/10 03:02:04;;;;;;;6.47;5.03;;;;;;;8.52;100.00;101948.47;1056639;27;20298;-83
2022/06/10 03:03:09;;;;;;;6.43;4.75;;;;;;;8.44;100.00;101948.50;1057185;27;20305;-83
2022/06/10 03:03:52;;;;;;;6.30;4.53;;;;;;;8.36;100.00;101954.69;1041313;28;20679;-83
2022/06/10 03:04:43;;;;;;;10.35;5.30;;;;;;;8.26;100.00;101944.28;1043578;28;20291;-83
2022/06/10 03:05:23;;;;;;;7.78;5.15;;;;;;;8.40;100.00;101949.84;1044194;28;20704;-83
2022/06/10 03:06:12;;;;;;;4.63;4.05;;;;;;;8.47;100.00;101948.16;1067193;27;20054;-83
2022/06/10 03:07:08;;;;;;;6.88;4.80;;;;;;;8.40;100.00;101955.16;1062018;27;20045;-84
2022/06/10 03:07:46;;;;;;;7.85;4.38;;;;;;;8.39;100.00;101950.84;1064457;27;20300;-83
2022/06/10 03:08:32;;;;;;;9.10;4.43;;;;;;;8.52;100.00;101948.47;1060605;27;20292;-83